Time;durP1;ratioP1;P1;durP2;ratioP2;P2;SDS_P1;SDS_P2;PMS_P1;PMS_P2;Temp;Humidity;BMP_temperature;BMP_pressure;BME280_temperature;BME280_humidity;BME280_pressure;Samples;Min_cycle;Max_cycle;Signal;HPM_P1;HPM_P2
2021/07/18 00:00:39;;;;;;;9.57;4.45;;;18.20;99.90;;;;;;5074125;28;20411;-60
2021/07/18 00:03:05;;;;;;;8.15;4.38;;;18.20;99.90;;;;;;5073575;28;20020;-59
2021/07/18 00:09:12;;;;;;;6.38;3.70;;;17.90;99.90;;;;;;5074034;28;20102;-60
2021/07/18 00:11:39;;;;;;;9.45;3.97;;;17.80;99.90;;;;;;5073373;28;20443;-60
2021/07/18 00:17:27;;;;;;;7.95;3.88;;;17.80;99.90;;;;;;5076262;28;20051;-61
2021/07/18 00:19:52;;;;;;;9.32;4.55;;;17.80;99.90;;;;;;5076292;28;20028;-60
2021/07/18 00:22:18;;;;;;;7.88;4.05;;;17.90;99.90;;;;;;5076505;28;20815;-61
2021/07/18 00:24:44;;;;;;;8.35;4.35;;;17.90;99.90;;;;;;5076990;28;20032;-61
2021/07/18 00:27:10;;;;;;;9.05;4.25;;;17.90;99.90;;;;;;5078902;28;20075;-59
2021/07/18 00:29:35;;;;;;;5.60;3.67;;;17.80;99.90;;;;;;5084511;28;20048;-60
2021/07/18 00:32:01;;;;;;;7.63;4.13;;;17.80;99.90;;;;;;5081835;28;20103;-60
2021/07/18 00:34:27;;;;;;;9.85;3.78;;;17.70;99.90;;;;;;5083752;28;20086;-60
2021/07/18 00:36:53;;;;;;;7.22;4.53;;;17.60;99.90;;;;;;5070204;28;20043;-59
2021/07/18 00:39:19;;;;;;;6.13;3.85;;;17.50;99.90;;;;;;5074354;28;20322;-59
2021/07/18 00:41:44;;;;;;;7.30;4.40;;;17.50;99.90;;;;;;5086762;28;20493;-63
2021/07/18 00:44:11;;;;;;;8.02;4.40;;;17.50;99.90;;;;;;5076675;28;20028;-58
2021/07/18 00:46:36;;;;;;;6.78;3.97;;;17.50;99.90;;;;;;5074398;28;20471;-61
2021/07/18 00:49:03;;;;;;;7.57;3.78;;;17.50;99.90;;;;;;5079547;28;20024;-61
2021/07/18 00:51:29;;;;;;;9.50;4.13;;;17.50;99.90;;;;;;5073331;28;20031;-60
2021/07/18 00:53:55;;;;;;;5.80;3.65;;;17.50;99.90;;;;;;5071672;28;20028;-59
2021/07/18 00:56:22;;;;;;;6.30;3.80;;;17.40;99.90;;;;;;5074128;28;20508;-61
2021/07/18 00:58:53;;;;;;;7.95;3.97;;;17.40;99.90;;;;;;5071086;28;20029;-60
2021/07/18 01:01:20;;;;;;;6.78;3.88;;;17.30;99.90;;;;;;5077280;28;20028;-61
2021/07/18 01:03:46;;;;;;;7.25;3.67;;;17.30;99.90;;;;;;5080390;28;20056;-60
2021/07/18 01:06:12;;;;;;;8.35;4.00;;;17.30;99.90;;;;;;5073326;28;20448;-61
2021/07/18 01:08:37;;;;;;;8.23;3.65;;;17.20;99.90;;;;;;5077532;28;20497;-60
2021/07/18 01:11:03;;;;;;;5.78;3.92;;;17.20;99.90;;;;;;5080564;28;20070;-60
2021/07/18 01:13:29;;;;;;;6.05;3.38;;;17.00;99.90;;;;;;5083873;28;20528;-60
2021/07/18 01:15:54;;;;;;;7.28;4.25;;;17.00;99.90;;;;;;5073374;28;20028;-61
2021/07/18 01:18:20;;;;;;;6.60;3.45;;;17.00;99.90;;;;;;5078029;28;20455;-60
2021/07/18 01:20:48;;;;;;;4.13;3.30;;;16.90;99.90;;;;;;5075950;28;20032;-60
2021/07/18 01:23:14;;;;;;;5.82;3.45;;;16.90;99.90;;;;;;5073122;28;20039;-60
2021/07/18 01:25:41;;;;;;;5.50;3.63;;;16.80;99.90;;;;;;5074118;28;20039;-60
2021/07/18 01:28:10;;;;;;;5.53;3.55;;;16.70;99.90;;;;;;5079848;28;20037;-60
2021/07/18 01:30:36;;;;;;;5.88;3.28;;;16.70;99.90;;;;;;5080066;28;20035;-61
2021/07/18 01:33:03;;;;;;;12.10;4.35;;;16.70;99.90;;;;;;5072293;28;20112;-58
2021/07/18 01:35:29;;;;;;;7.22;3.78;;;16.60;99.90;;;;;;5082245;28;20032;-59
2021/07/18 01:37:58;;;;;;;7.07;3.58;;;16.60;99.90;;;;;;5076824;28;20111;-58
2021/07/18 01:40:24;;;;;;;6.53;3.58;;;16.60;99.90;;;;;;5083533;28;20039;-59
2021/07/18 01:42:52;;;;;;;8.90;3.83;;;16.60;99.90;;;;;;5086290;28;20036;-60
2021/07/18 01:45:19;;;;;;;7.07;3.70;;;16.50;99.90;;;;;;5085196;28;20391;-60
2021/07/18 01:47:46;;;;;;;5.00;3.17;;;16.50;99.90;;;;;;5077608;28;20033;-60
2021/07/18 01:50:12;;;;;;;6.10;3.60;;;16.50;99.90;;;;;;5077423;28;20043;-61
2021/07/18 01:52:38;;;;;;;7.28;3.58;;;16.50;99.90;;;;;;5084157;28;20024;-59
2021/07/18 01:55:04;;;;;;;5.95;3.22;;;16.40;99.90;;;;;;5077612;28;20044;-61
2021/07/18 01:57:30;;;;;;;5.82;3.47;;;16.40;99.90;;;;;;5074107;28;20051;-60
2021/07/18 01:59:55;;;;;;;8.40;3.55;;;16.40;99.90;;;;;;5083674;28;20028;-60
2021/07/18 02:02:22;;;;;;;7.30;3.40;;;16.30;99.90;;;;;;5080686;28;20032;-58
2021/07/18 02:04:48;;;;;;;6.68;3.45;;;16.30;99.90;;;;;;5082504;28;20020;-60
2021/07/18 02:07:16;;;;;;;5.07;3.22;;;16.30;99.90;;;;;;5083907;28;20486;-60
2021/07/18 02:09:43;;;;;;;5.50;3.45;;;16.30;99.90;;;;;;5080535;28;20112;-61
2021/07/18 02:12:09;;;;;;;6.68;3.20;;;16.20;99.90;;;;;;5076607;28;20031;-59
2021/07/18 02:14:36;;;;;;;7.43;3.40;;;16.20;99.90;;;;;;5080093;28;20020;-59
2021/07/18 02:17:03;;;;;;;7.68;3.20;;;16.10;99.90;;;;;;5082007;28;20047;-59
2021/07/18 02:19:29;;;;;;;4.35;2.95;;;16.10;99.90;;;;;;5083596;28;20032;-58
2021/07/18 02:21:56;;;;;;;5.60;3.42;;;16.10;99.90;;;;;;5083320;28;20505;-59
2021/07/18 02:24:22;;;;;;;10.38;3.53;;;16.00;99.90;;;;;;5087792;28;20043;-58
2021/07/18 02:26:48;;;;;;;10.57;3.35;;;16.00;99.90;;;;;;5074145;28;20037;-60
2021/07/18 02:29:13;;;;;;;6.93;3.40;;;16.00;99.90;;;;;;5082397;28;20044;-59
2021/07/18 02:31:40;;;;;;;10.40;3.40;;;16.00;99.90;;;;;;5076681;28;20055;-58
2021/07/18 02:34:06;;;;;;;9.57;3.90;;;16.10;99.90;;;;;;5079313;28;20027;-59
2021/07/18 02:36:33;;;;;;;7.53;3.50;;;16.10;99.90;;;;;;5081361;28;20028;-60
2021/07/18 02:38:59;;;;;;;8.45;3.53;;;16.10;99.90;;;;;;5079337;28;20082;-59
2021/07/18 02:41:26;;;;;;;8.70;3.78;;;16.00;99.90;;;;;;5091196;28;20054;-60
2021/07/18 02:43:51;;;;;;;6.75;3.42;;;16.00;99.90;;;;;;5084892;28;20032;-60
2021/07/18 02:46:18;;;;;;;8.95;4.03;;;15.90;99.90;;;;;;5083543;28;20037;-61
2021/07/18 02:48:43;;;;;;;11.15;3.58;;;15.90;99.90;;;;;;5079874;28;20050;-61
2021/07/18 02:51:09;;;;;;;6.18;3.60;;;15.80;99.90;;;;;;5074981;28;20498;-59
2021/07/18 02:53:35;;;;;;;8.35;3.30;;;15.80;99.90;;;;;;5078982;28;20083;-60
2021/07/18 02:56:00;;;;;;;13.82;3.50;;;15.90;99.90;;;;;;5086573;28;20432;-60
2021/07/18 02:58:26;;;;;;;16.20;3.63;;;15.80;99.90;;;;;;5082398;28;20490;-59
2021/07/18 03:00:52;;;;;;;6.47;3.00;;;15.70;99.90;;;;;;5073814;28;20033;-61
2021/07/18 03:03:19;;;;;;;15.43;3.58;;;15.70;99.90;;;;;;5086034;28;20070;-62
2021/07/18 03:05:46;;;;;;;7.57;3.55;;;15.70;99.90;;;;;;5086071;28;20103;-62
2021/07/18 03:08:12;;;;;;;11.15;3.67;;;15.70;99.90;;;;;;5078858;28;20055;-60
2021/07/18 03:10:38;;;;;;;13.00;3.70;;;15.70;99.90;;;;;;5076359;28;20449;-60
2021/07/18 03:13:04;;;;;;;14.90;3.80;;;15.70;99.90;;;;;;5070865;28;20063;-61
2021/07/18 03:15:30;;;;;;;11.82;3.60;;;15.70;99.90;;;;;;5080569;28;20039;-61
2021/07/18 03:17:55;;;;;;;13.40;3.00;;;15.70;99.90;;;;;;5071554;28;20391;-61
2021/07/18 03:20:21;;;;;;;10.30;3.53;;;15.60;99.90;;;;;;5077376;28;20028;-62
2021/07/18 03:22:48;;;;;;;16.95;3.28;;;15.60;99.90;;;;;;5074333;28;20025;-60
2021/07/18 03:25:15;;;;;;;9.40;3.53;;;15.60;99.90;;;;;;5084239;28;20028;-60
2021/07/18 03:27:42;;;;;;;6.30;3.58;;;15.50;99.90;;;;;;5072745;28;20086;-60
2021/07/18 03:30:10;;;;;;;14.05;3.58;;;15.50;99.90;;;;;;5076534;28;20045;-59
2021/07/18 03:32:36;;;;;;;10.82;3.70;;;15.50;99.90;;;;;;5080044;28;20020;-61
2021/07/18 03:35:04;;;;;;;13.25;3.72;;;15.50;99.90;;;;;;5073983;28;20032;-60
2021/07/18 03:37:30;;;;;;;11.50;3.60;;;15.50;99.90;;;;;;5072332;28;20230;-60
2021/07/18 03:39:55;;;;;;;11.82;3.60;;;15.40;99.90;;;;;;5081372;28;20020;-59
2021/07/18 03:42:21;;;;;;;20.42;3.60;;;15.40;99.90;;;;;;5075448;28;20467;-62
2021/07/18 03:44:47;;;;;;;15.20;4.15;;;15.40;99.90;;;;;;5082519;28;20036;-60
2021/07/18 03:47:13;;;;;;;22.92;4.30;;;15.30;99.90;;;;;;5082297;28;20504;-59
2021/07/18 03:49:38;;;;;;;13.82;3.72;;;15.30;99.90;;;;;;5078423;28;20032;-58
2021/07/18 03:52:04;;;;;;;19.90;3.88;;;15.30;99.90;;;;;;5077061;28;20036;-59
2021/07/18 03:54:30;;;;;;;11.73;3.22;;;15.30;99.90;;;;;;5076538;28;20032;-59
2021/07/18 03:56:57;;;;;;;9.57;3.47;;;15.20;99.90;;;;;;5085615;28;20119;-59
2021/07/18 03:59:23;;;;;;;19.60;4.15;;;15.20;99.90;;;;;;5080072;28;20078;-60
2021/07/18 04:01:48;;;;;;;13.07;3.53;;;15.20;99.90;;;;;;5083711;28;20032;-59
2021/07/18 04:04:14;;;;;;;16.98;3.45;;;15.20;99.90;;;;;;5081573;28;20386;-59
2021/07/18 04:06:40;;;;;;;19.25;4.55;;;15.20;99.90;;;;;;5079440;28;20044;-59
2021/07/18 04:09:05;;;;;;;20.23;4.00;;;15.20;99.90;;;;;;5074321;28;20025;-61
2021/07/18 04:11:31;;;;;;;16.83;3.95;;;15.20;99.90;;;;;;5079713;28;20032;-59
2021/07/18 04:13:57;;;;;;;25.92;3.90;;;15.20;99.90;;;;;;5072971;28;20063;-59
2021/07/18 04:16:22;;;;;;;17.15;4.13;;;15.10;99.90;;;;;;5089579;28;20418;-59
2021/07/18 04:18:48;;;;;;;18.30;3.80;;;15.10;99.90;;;;;;5072700;28;20025;-59
2021/07/18 04:21:19;;;;;;;18.67;3.85;;;15.10;99.90;;;;;;5079423;28;20404;-61
2021/07/18 04:23:48;;;;;;;21.08;3.88;;;15.10;99.90;;;;;;5083430;28;20108;-60
2021/07/18 04:26:14;;;;;;;20.45;3.90;;;15.00;99.90;;;;;;5072325;28;20549;-59
2021/07/18 04:28:40;;;;;;;16.52;3.70;;;14.90;99.90;;;;;;5070554;28;20131;-58
2021/07/18 04:31:06;;;;;;;21.00;4.32;;;14.90;99.90;;;;;;5072388;28;20135;-60
2021/07/18 04:33:32;;;;;;;18.02;3.97;;;14.80;99.90;;;;;;5077525;28;20398;-60
2021/07/18 04:35:57;;;;;;;19.58;4.00;;;14.90;99.90;;;;;;5072190;28;20029;-61
2021/07/18 04:38:23;;;;;;;17.92;3.63;;;14.90;99.90;;;;;;5073660;28;20024;-59
2021/07/18 04:40:49;;;;;;;24.10;4.28;;;14.90;99.90;;;;;;5076736;28;20501;-59
2021/07/18 04:43:15;;;;;;;21.10;4.18;;;14.90;99.90;;;;;;5073875;28;21815;-58
2021/07/18 04:45:40;;;;;;;18.85;4.40;;;14.90;99.90;;;;;;5082675;28;20035;-60
2021/07/18 04:48:06;;;;;;;20.77;4.00;;;15.00;99.90;;;;;;5072395;28;20040;-59
2021/07/18 04:50:32;;;;;;;29.70;4.50;;;15.00;99.90;;;;;;5072199;28;20032;-59
2021/07/18 04:52:58;;;;;;;14.10;3.80;;;15.00;99.90;;;;;;5074369;28;20551;-60
2021/07/18 04:55:23;;;;;;;24.42;4.18;;;15.10;99.90;;;;;;5075174;28;20052;-60
2021/07/18 04:57:49;;;;;;;30.98;4.28;;;15.10;99.90;;;;;;5084685;28;20046;-61
2021/07/18 05:00:18;;;;;;;23.77;4.20;;;15.20;99.90;;;;;;5082049;28;20390;-59
2021/07/18 05:02:43;;;;;;;26.10;4.30;;;15.20;99.90;;;;;;5086625;28;20051;-60
2021/07/18 05:05:11;;;;;;;25.92;4.60;;;15.20;99.90;;;;;;5074502;28;20113;-60
2021/07/18 05:07:49;;;;;;;16.98;4.47;;;15.30;99.90;;;;;;5074797;28;20040;-59
2021/07/18 05:10:17;;;;;;;248.85;24.92;;;15.40;99.90;;;;;;5075266;28;20083;-60
2021/07/18 05:12:47;;;;;;;8.90;3.85;;;15.50;99.90;;;;;;5071990;28;20052;-60
2021/07/18 05:15:14;;;;;;;28.30;4.85;;;15.50;99.90;;;;;;5075132;28;20028;-60
2021/07/18 05:17:40;;;;;;;21.58;5.05;;;15.60;99.90;;;;;;5084076;28;20059;-60
2021/07/18 05:20:07;;;;;;;14.93;3.90;;;15.70;99.90;;;;;;5073770;28;20025;-60
2021/07/18 05:22:33;;;;;;;14.68;4.22;;;15.60;99.90;;;;;;5071916;28;20028;-58
2021/07/18 05:25:00;;;;;;;24.90;5.00;;;15.70;99.90;;;;;;5077913;28;20032;-58
2021/07/18 05:27:26;;;;;;;14.32;4.07;;;15.80;99.90;;;;;;5082945;28;20092;-59
2021/07/18 05:29:52;;;;;;;19.42;4.85;;;15.80;99.90;;;;;;5075593;28;20132;-62
2021/07/18 05:32:17;;;;;;;21.77;4.75;;;15.90;99.90;;;;;;5088671;28;20031;-60
2021/07/18 05:34:43;;;;;;;16.92;5.00;;;16.00;99.90;;;;;;5083771;28;20378;-60
2021/07/18 05:37:09;;;;;;;19.35;4.70;;;16.10;99.90;;;;;;5076881;28;20460;-63
2021/07/18 05:39:35;;;;;;;16.98;4.50;;;16.20;99.90;;;;;;5077533;28;20094;-59
2021/07/18 05:42:00;;;;;;;20.20;4.82;;;16.40;99.90;;;;;;5070841;28;20028;-60
2021/07/18 05:44:27;;;;;;;27.85;5.18;;;16.60;99.90;;;;;;5071433;28;20051;-62
2021/07/18 05:46:53;;;;;;;29.52;5.68;;;16.70;99.90;;;;;;5077352;28;20059;-61
2021/07/18 05:49:19;;;;;;;21.95;4.95;;;16.70;99.90;;;;;;5071974;28;20024;-61
2021/07/18 05:51:45;;;;;;;16.00;4.20;;;16.80;99.90;;;;;;5071385;28;20093;-59
2021/07/18 05:54:10;;;;;;;21.83;5.55;;;16.80;99.90;;;;;;5077340;28;20036;-60
2021/07/18 05:56:37;;;;;;;16.65;4.18;;;16.90;99.90;;;;;;5080367;28;20028;-61
2021/07/18 05:59:03;;;;;;;13.95;4.72;;;16.90;99.90;;;;;;5070059;28;20058;-60
2021/07/18 06:01:29;;;;;;;16.02;4.35;;;17.00;99.90;;;;;;5070515;28;20441;-61
2021/07/18 06:03:55;;;;;;;14.93;4.85;;;17.10;99.90;;;;;;5069879;28;20024;-60
2021/07/18 06:06:20;;;;;;;12.15;3.97;;;17.10;99.90;;;;;;5082825;28;20143;-60
2021/07/18 06:08:46;;;;;;;18.27;5.47;;;17.20;99.90;;;;;;5078235;28;20461;-59
2021/07/18 06:11:12;;;;;;;13.80;4.40;;;17.30;99.90;;;;;;5075675;28;20124;-60
2021/07/18 06:13:38;;;;;;;17.38;4.30;;;17.50;99.90;;;;;;5081533;28;20109;-61
2021/07/18 06:16:04;;;;;;;13.98;4.32;;;17.70;99.90;;;;;;5084629;28;20032;-60
2021/07/18 06:18:30;;;;;;;14.13;4.32;;;17.80;99.90;;;;;;5077201;28;20510;-60
2021/07/18 06:20:56;;;;;;;21.83;4.82;;;18.00;99.90;;;;;;5076543;28;20040;-61
2021/07/18 06:23:22;;;;;;;10.23;4.18;;;18.00;99.90;;;;;;5072857;28;20039;-59
2021/07/18 06:25:47;;;;;;;17.85;4.93;;;18.20;99.90;;;;;;5080974;28;20109;-59
2021/07/18 06:28:13;;;;;;;10.55;4.45;;;18.30;99.90;;;;;;5079675;28;20043;-60
2021/07/18 06:30:39;;;;;;;19.60;5.65;;;18.50;99.90;;;;;;5074326;28;20033;-60
2021/07/18 06:33:05;;;;;;;14.23;4.78;;;18.60;99.90;;;;;;5074288;28;20031;-62
2021/07/18 06:35:31;;;;;;;9.75;4.72;;;18.80;99.90;;;;;;5073050;28;20036;-61
2021/07/18 06:37:57;;;;;;;14.68;4.88;;;19.00;99.90;;;;;;5075751;28;20027;-59
2021/07/18 06:40:22;;;;;;;15.65;4.85;;;19.10;99.90;;;;;;5087065;28;20097;-59
2021/07/18 06:42:48;;;;;;;10.82;5.00;;;19.30;99.90;;;;;;5077362;28;20028;-60
2021/07/18 06:45:15;;;;;;;18.30;5.20;;;19.60;99.90;;;;;;5080917;28;20032;-59
2021/07/18 06:47:40;;;;;;;11.63;4.43;;;19.90;99.90;;;;;;5079749;28;21603;-61
2021/07/18 06:50:07;;;;;;;11.27;4.78;;;20.20;99.90;;;;;;5084837;28;20498;-60
2021/07/18 06:52:33;;;;;;;10.00;4.75;;;20.60;99.90;;;;;;5073392;28;20039;-61
2021/07/18 06:54:59;;;;;;;10.25;4.60;;;21.00;99.90;;;;;;5086182;28;20703;-64
2021/07/18 06:57:24;;;;;;;8.52;4.10;;;21.40;99.90;;;;;;5079048;28;20040;-61
2021/07/18 06:59:50;;;;;;;12.00;4.72;;;21.70;99.90;;;;;;5076046;28;20043;-61
2021/07/18 07:02:17;;;;;;;16.23;4.15;;;21.90;99.90;;;;;;5081849;28;20032;-60
2021/07/18 07:04:43;;;;;;;8.30;4.78;;;22.20;99.90;;;;;;5084772;28;20028;-60
2021/07/18 07:07:09;;;;;;;9.90;4.75;;;22.40;99.90;;;;;;5082991;28;20486;-61
2021/07/18 07:09:36;;;;;;;13.35;4.55;;;22.70;99.90;;;;;;5073458;28;20029;-59
2021/07/18 07:12:02;;;;;;;9.00;4.47;;;23.00;99.90;;;;;;5085662;28;20390;-59
2021/07/18 07:14:28;;;;;;;12.18;4.43;;;23.20;99.90;;;;;;5086539;28;20112;-60
2021/07/18 07:16:54;;;;;;;9.20;4.45;;;23.30;99.90;;;;;;5078037;28;20417;-59
2021/07/18 07:19:19;;;;;;;6.93;4.20;;;23.30;99.90;;;;;;5080010;28;20032;-60
2021/07/18 07:21:45;;;;;;;10.90;4.50;;;23.40;99.90;;;;;;5091750;28;20059;-62
2021/07/18 07:24:11;;;;;;;12.20;4.93;;;23.70;99.90;;;;;;5072692;28;20074;-61
2021/07/18 07:26:37;;;;;;;12.60;4.50;;;23.80;99.90;;;;;;5086379;28;20068;-61
2021/07/18 07:29:04;;;;;;;10.93;4.80;;;24.00;99.90;;;;;;5084009;28;20075;-60
2021/07/18 07:31:30;;;;;;;21.52;4.63;;;24.10;99.90;;;;;;5082032;28;20025;-60
2021/07/18 07:33:56;;;;;;;10.27;4.50;;;24.30;99.90;;;;;;5076796;28;20107;-61
2021/07/18 07:36:22;;;;;;;10.63;4.93;;;24.40;99.90;;;;;;5081932;28;20032;-59
2021/07/18 07:38:55;;;;;;;16.23;6.53;;;24.70;99.90;;;;;;5080793;28;20079;-63
2021/07/18 07:41:23;;;;;;;13.48;5.00;;;24.90;99.90;;;;;;5072285;28;20051;-59
2021/07/18 07:43:53;;;;;;;12.52;4.50;;;25.10;99.90;;;;;;5072131;28;20062;-59
2021/07/18 07:46:21;;;;;;;10.55;4.95;;;25.30;99.90;;;;;;5073564;28;20566;-60
2021/07/18 07:48:46;;;;;;;9.57;4.00;;;25.60;99.90;;;;;;5088818;28;20111;-61
2021/07/18 07:51:12;;;;;;;11.52;4.55;;;26.00;99.90;;;;;;5076235;28;20064;-60
2021/07/18 07:53:38;;;;;;;15.50;4.65;;;26.00;99.90;;;;;;5077470;28;20054;-60
2021/07/18 07:56:04;;;;;;;8.55;4.25;;;26.00;99.90;;;;;;5078249;28;20474;-60
2021/07/18 07:58:30;;;;;;;12.55;4.40;;;26.10;99.90;;;;;;5080153;28;20491;-61
2021/07/18 08:00:56;;;;;;;12.90;4.45;;;26.20;99.90;;;;;;5079897;28;20056;-61
2021/07/18 08:03:21;;;;;;;10.18;4.22;;;26.30;99.90;;;;;;5079791;28;20058;-61
2021/07/18 08:05:47;;;;;;;11.63;4.15;;;26.60;99.90;;;;;;5087336;28;20121;-62
2021/07/18 08:08:13;;;;;;;6.88;4.20;;;27.20;99.90;;;;;;5085786;28;20508;-62
2021/07/18 08:10:39;;;;;;;8.70;3.83;;;27.40;99.90;;;;;;5080471;28;20090;-62
2021/07/18 08:13:05;;;;;;;6.68;4.25;;;27.40;99.90;;;;;;5078514;28;20441;-61
2021/07/18 08:15:32;;;;;;;5.88;3.60;;;27.50;99.90;;;;;;5070120;28;20031;-60
2021/07/18 08:17:58;;;;;;;9.13;3.92;;;27.60;99.90;;;;;;5070970;28;20108;-61
2021/07/18 08:20:25;;;;;;;10.70;4.25;;;27.60;99.90;;;;;;5069965;28;20111;-61
2021/07/18 08:22:53;;;;;;;9.07;3.78;;;27.80;99.90;;;;;;5077165;28;20066;-59
2021/07/18 08:25:21;;;;;;;12.10;4.28;;;27.80;99.90;;;;;;5069897;28;20063;-63
2021/07/18 08:27:48;;;;;;;5.40;3.95;;;27.90;99.90;;;;;;5074618;28;20040;-66
2021/07/18 08:30:15;;;;;;;10.40;3.97;;;28.30;99.90;;;;;;5070082;28;20045;-61
2021/07/18 08:32:42;;;;;;;9.25;4.03;;;28.50;99.90;;;;;;5076298;28;20036;-59
2021/07/18 08:35:09;;;;;;;9.43;4.15;;;28.40;99.90;;;;;;5079679;28;20028;-61
2021/07/18 08:37:36;;;;;;;9.27;4.50;;;28.60;99.90;;;;;;5077108;28;20457;-59
2021/07/18 08:40:04;;;;;;;6.10;4.47;;;28.60;99.90;;;;;;5080970;28;20145;-59
2021/07/18 08:42:30;;;;;;;9.45;4.45;;;28.50;99.90;;;;;;5070450;28;20072;-60
2021/07/18 08:45:01;;;;;;;10.52;4.43;;;28.40;99.90;;;;;;5074114;28;20028;-60
2021/07/18 08:47:27;;;;;;;8.32;4.72;;;28.60;99.90;;;;;;5077516;28;20115;-59
2021/07/18 08:49:53;;;;;;;12.77;6.95;;;28.70;99.90;;;;;;5069310;28;20061;-59
2021/07/18 08:52:20;;;;;;;8.75;4.38;;;28.80;99.90;;;;;;5070534;28;20108;-62
2021/07/18 08:54:59;;;;;;;7.40;3.90;;;28.80;99.90;;;;;;5072247;28;20032;-63
2021/07/18 08:57:26;;;;;;;11.65;4.55;;;28.90;99.90;;;;;;5079125;28;20024;-60
2021/07/18 08:59:52;;;;;;;27.65;9.65;;;29.00;99.90;;;;;;5078252;28;20039;-61
2021/07/18 09:02:20;;;;;;;11.20;7.00;;;29.40;99.90;;;;;;5090787;28;20032;-61
2021/07/18 09:04:49;;;;;;;8.93;4.97;;;29.30;99.90;;;;;;5076580;28;20024;-61
2021/07/18 09:07:18;;;;;;;7.10;4.47;;;29.40;99.90;;;;;;5077967;28;20068;-60
2021/07/18 09:09:45;;;;;;;7.05;4.13;;;29.20;99.90;;;;;;5078308;28;20081;-59
2021/07/18 09:12:11;;;;;;;10.10;4.32;;;29.20;99.90;;;;;;5072912;28;20021;-61
2021/07/18 09:14:44;;;;;;;5.95;3.90;;;29.40;99.90;;;;;;5075016;28;20083;-60
2021/07/18 09:17:14;;;;;;;4.32;3.83;;;29.60;99.90;;;;;;5070129;28;20047;-61
2021/07/18 09:19:42;;;;;;;6.15;4.18;;;29.50;99.90;;;;;;5075231;28;20501;-60
2021/07/18 09:22:16;;;;;;;7.28;4.07;;;29.80;99.90;;;;;;5072228;28;20036;-60
2021/07/18 09:24:47;;;;;;;7.00;4.50;;;30.10;99.90;;;;;;5084962;28;20028;-59
2021/07/18 09:27:23;;;;;;;6.63;4.35;;;30.30;99.90;;;;;;5079859;28;20040;-60
2021/07/18 09:29:49;;;;;;;7.88;4.20;;;30.40;99.90;;;;;;5073608;28;20097;-60
2021/07/18 09:32:20;;;;;;;12.32;4.60;;;30.40;99.90;;;;;;5074198;28;20020;-61
2021/07/18 09:34:51;;;;;;;9.07;4.35;;;30.30;99.90;;;;;;5071470;28;20029;-63
2021/07/18 09:37:23;;;;;;;7.15;4.18;;;30.00;99.90;;;;;;5074863;28;20469;-60
2021/07/18 09:39:49;;;;;;;8.15;4.40;;;30.10;99.90;;;;;;5071846;28;20544;-60
2021/07/18 09:42:48;;;;;;;12.07;4.93;;;29.90;99.90;;;;;;5071564;28;20028;-59
2021/07/18 09:45:23;;;;;;;6.05;4.07;;;29.90;99.90;;;;;;5071932;28;20099;-61
2021/07/18 09:47:49;;;;;;;8.00;4.28;;;30.00;99.90;;;;;;5071897;28;20055;-61
2021/07/18 09:50:19;;;;;;;13.50;5.45;;;30.30;99.90;;;;;;5080862;28;20433;-63
2021/07/18 09:52:48;;;;;;;10.57;4.65;;;30.30;99.90;;;;;;5071972;28;20025;-59
2021/07/18 09:55:23;;;;;;;10.40;3.90;;;30.40;99.90;;;;;;5078974;28;20424;-61
2021/07/18 09:57:52;;;;;;;8.00;4.13;;;30.40;99.90;;;;;;5074916;28;20433;-60
2021/07/18 10:00:20;;;;;;;8.88;4.22;;;30.10;99.90;;;;;;5079220;28;20031;-62
2021/07/18 10:02:46;;;;;;;5.50;3.83;;;30.00;99.90;;;;;;5082316;28;20020;-60
2021/07/18 10:05:28;;;;;;;8.45;4.07;;;30.20;99.90;;;;;;5078097;28;20035;-61
2021/07/18 10:08:07;;;;;;;12.32;4.15;;;30.40;99.90;;;;;;5075755;28;20489;-59
2021/07/18 10:10:37;;;;;;;6.70;4.30;;;30.60;99.90;;;;;;5071883;28;20367;-60
2021/07/18 10:13:04;;;;;;;7.47;4.03;;;30.40;99.90;;;;;;5073275;28;20401;-61
2021/07/18 10:15:31;;;;;;;7.30;4.10;;;30.30;99.90;;;;;;5087373;28;20106;-60
2021/07/18 10:17:57;;;;;;;6.95;3.42;;;30.50;99.90;;;;;;5082709;28;20035;-62
2021/07/18 10:20:27;;;;;;;8.07;4.30;;;30.60;99.90;;;;;;5073739;28;20035;-61
2021/07/18 10:22:54;;;;;;;8.20;4.13;;;30.60;99.90;;;;;;5074113;28;20052;-61
2021/07/18 10:25:20;;;;;;;7.85;4.13;;;30.50;99.90;;;;;;5080042;28;20373;-61
2021/07/18 10:27:47;;;;;;;9.27;5.07;;;30.70;99.90;;;;;;5086435;28;20094;-60
2021/07/18 10:30:15;;;;;;;7.00;3.95;;;30.70;99.90;;;;;;5079514;28;20131;-61
2021/07/18 10:32:45;;;;;;;6.63;4.13;;;30.80;99.90;;;;;;5081141;28;20069;-61
2021/07/18 10:35:12;;;;;;;7.95;4.32;;;31.00;99.90;;;;;;5073608;28;20056;-62
2021/07/18 10:37:39;;;;;;;6.75;4.00;;;30.70;99.90;;;;;;5075905;28;20078;-62
2021/07/18 10:40:21;;;;;;;9.48;4.88;;;30.90;99.90;;;;;;5076651;28;20074;-62
2021/07/18 10:42:50;;;;;;;7.15;4.05;;;31.00;99.90;;;;;;5075740;28;20021;-62
2021/07/18 10:45:18;;;;;;;5.90;3.97;;;30.70;99.90;;;;;;5078118;28;20029;-60
2021/07/18 10:48:09;;;;;;;11.82;4.68;;;30.80;99.90;;;;;;5076520;28;20087;-62
2021/07/18 10:50:44;;;;;;;8.55;4.32;;;30.50;99.90;;;;;;5062497;28;20044;-61
2021/07/18 10:53:30;;;;;;;8.82;4.10;;;30.50;99.90;;;;;;5080526;28;20066;-60
2021/07/18 10:55:59;;;;;;;6.03;4.25;;;30.60;99.90;;;;;;5085796;28;20485;-60
2021/07/18 10:58:40;;;;;;;8.23;4.43;;;30.70;99.90;;;;;;5075403;28;20024;-66
2021/07/18 11:01:26;;;;;;;5.35;3.88;;;30.60;99.90;;;;;;5078671;28;20032;-61
2021/07/18 11:03:52;;;;;;;8.65;3.95;;;30.50;99.90;;;;;;5077424;28;20107;-60
2021/07/18 11:06:37;;;;;;;5.78;3.85;;;30.50;99.90;;;;;;5077283;28;20107;-62
2021/07/18 11:09:06;;;;;;;10.73;4.65;;;30.60;99.90;;;;;;5083429;28;20039;-61
2021/07/18 11:11:38;;;;;;;8.77;4.10;;;30.50;99.90;;;;;;5079041;28;20455;-59
2021/07/18 11:14:28;;;;;;;8.32;3.97;;;30.70;99.90;;;;;;5077750;28;20023;-60
2021/07/18 11:17:26;;;;;;;5.72;3.70;;;30.70;99.90;;;;;;5074528;28;20032;-62
2021/07/18 11:20:07;;;;;;;8.95;3.53;;;30.80;99.90;;;;;;5074420;28;20036;-59
2021/07/18 11:23:00;;;;;;;8.63;4.15;;;30.70;99.90;;;;;;5072154;28;20024;-62
2021/07/18 11:25:43;;;;;;;7.10;3.72;;;30.90;99.90;;;;;;5074284;28;20021;-60
2021/07/18 11:28:40;;;;;;;5.32;3.80;;;30.80;99.90;;;;;;5073548;28;20033;-58
2021/07/18 11:34:07;;;;;;;7.70;4.28;;;30.80;99.90;;;;;;5074265;28;20048;-59
2021/07/18 11:36:32;;;;;;;8.35;4.20;;;30.90;99.90;;;;;;5074262;28;20036;-59
2021/07/18 11:39:16;;;;;;;5.93;3.95;;;31.00;99.90;;;;;;5076834;28;20677;-60
2021/07/18 11:41:44;;;;;;;4.38;3.60;;;30.80;99.90;;;;;;5076032;28;20028;-61
2021/07/18 11:44:11;;;;;;;6.63;4.25;;;30.80;99.90;;;;;;5077511;28;20024;-60
2021/07/18 11:46:39;;;;;;;8.88;4.75;;;30.80;99.90;;;;;;5082359;28;20028;-58
2021/07/18 11:49:06;;;;;;;8.70;3.97;;;30.80;99.90;;;;;;5079403;28;20106;-59
2021/07/18 11:51:56;;;;;;;5.22;3.53;;;30.70;99.90;;;;;;5084580;28;20028;-61
2021/07/18 11:54:22;;;;;;;3.80;3.40;;;30.90;99.90;;;;;;5077233;28;20055;-58
2021/07/18 11:56:50;;;;;;;8.63;3.65;;;30.80;99.90;;;;;;5074511;28;20033;-57
2021/07/18 11:59:19;;;;;;;8.73;4.30;;;30.80;99.90;;;;;;5077833;28;20490;-58
2021/07/18 12:01:48;;;;;;;8.25;4.22;;;30.90;99.90;;;;;;5074335;28;20032;-57
2021/07/18 12:04:16;;;;;;;5.75;4.05;;;30.90;99.90;;;;;;5078771;28;20040;-58
2021/07/18 12:06:42;;;;;;;15.77;4.82;;;31.10;99.90;;;;;;5076087;28;20490;-58
2021/07/18 12:09:20;;;;;;;10.43;4.55;;;31.00;99.90;;;;;;5076719;28;20658;-58
2021/07/18 12:11:48;;;;;;;9.40;4.20;;;31.00;99.90;;;;;;5080330;28;20036;-59
2021/07/18 12:14:16;;;;;;;9.23;4.20;;;31.00;99.90;;;;;;5070955;28;20485;-61
2021/07/18 12:16:44;;;;;;;9.27;4.30;;;31.00;99.90;;;;;;5073565;28;20063;-61
2021/07/18 12:19:11;;;;;;;7.93;4.20;;;31.00;99.90;;;;;;5074120;28;20019;-61
2021/07/18 12:21:40;;;;;;;7.30;4.18;;;31.10;99.90;;;;;;5077155;28;20723;-59
2021/07/18 12:24:37;;;;;;;7.00;3.90;;;31.20;99.90;;;;;;5073847;28;20024;-61
2021/07/18 12:27:09;;;;;;;8.45;4.15;;;31.50;99.90;;;;;;5077416;28;20053;-58
2021/07/18 12:29:46;;;;;;;9.55;3.70;;;31.60;99.90;;;;;;5072372;28;20040;-59
2021/07/18 12:32:12;;;;;;;11.02;4.35;;;31.40;99.90;;;;;;5078445;28;20032;-61
2021/07/18 12:34:41;;;;;;;5.57;4.03;;;31.20;99.90;;;;;;5069456;28;20367;-62
2021/07/18 12:37:09;;;;;;;5.93;3.90;;;31.10;99.90;;;;;;5068957;28;20583;-58
2021/07/18 12:39:36;;;;;;;6.93;4.40;;;31.00;99.90;;;;;;5077564;28;20468;-58
2021/07/18 12:42:07;;;;;;;11.60;4.30;;;31.20;99.90;;;;;;5075084;28;20059;-57
2021/07/18 12:44:36;;;;;;;11.90;4.30;;;31.20;99.90;;;;;;5074949;28;20052;-61
2021/07/18 12:47:31;;;;;;;6.40;4.20;;;31.10;99.90;;;;;;5076480;28;20033;-59
2021/07/18 12:50:15;;;;;;;7.15;3.97;;;31.30;99.90;;;;;;5075320;28;20044;-58
2021/07/18 12:53:15;;;;;;;8.32;3.35;;;31.30;99.90;;;;;;5071562;28;20482;-57
2021/07/18 12:55:45;;;;;;;6.03;3.50;;;31.30;99.90;;;;;;5074244;28;20032;-59
2021/07/18 12:58:13;;;;;;;16.67;4.28;;;31.10;99.90;;;;;;5074475;28;20047;-59